sensor_id;sensor_type;location;lat;lon;timestamp;temperature;humidity
40756;DHT22;26461;45.630;9.418;2023-06-10T00:00:37;22.20;99.90
40756;DHT22;26461;45.630;9.418;2023-06-10T00:03:47;22.20;99.90
40756;DHT22;26461;45.630;9.418;2023-06-10T00:06:52;22.10;99.90
40756;DHT22;26461;45.630;9.418;2023-06-10T00:09:59;22.10;99.90
40756;DHT22;26461;45.630;9.418;2023-06-10T00:13:05;22.10;99.90
40756;DHT22;26461;45.630;9.418;2023-06-10T00:16:18;22.10;99.90
40756;DHT22;26461;45.630;9.418;2023-06-10T00:19:29;22.10;99.90
40756;DHT22;26461;45.630;9.418;2023-06-10T00:22:38;22.20;99.90
40756;DHT22;26461;45.630;9.418;2023-06-10T00:25:44;22.10;99.90
40756;DHT22;26461;45.630;9.418;2023-06-10T00:28:54;22.10;99.90
40756;DHT22;26461;45.630;9.418;2023-06-10T00:31:59;22.10;99.90
40756;DHT22;26461;45.630;9.418;2023-06-10T00:35:05;22.10;99.90
40756;DHT22;26461;45.630;9.418;2023-06-10T00:38:16;22.10;99.90
40756;DHT22;26461;45.630;9.418;2023-06-10T00:41:21;22.00;99.90
40756;DHT22;26461;45.630;9.418;2023-06-10T00:44:28;22.00;99.90
40756;DHT22;26461;45.630;9.418;2023-06-10T00:47:39;22.00;99.90
40756;DHT22;26461;45.630;9.418;2023-06-10T00:50:50;22.00;99.90
40756;DHT22;26461;45.630;9.418;2023-06-10T00:53:55;22.00;99.90
40756;DHT22;26461;45.630;9.418;2023-06-10T00:57:01;22.00;99.90
40756;DHT22;26461;45.630;9.418;2023-06-10T01:00:13;22.00;99.90
40756;DHT22;26461;45.630;9.418;2023-06-10T01:03:25;22.00;99.90
40756;DHT22;26461;45.630;9.418;2023-06-10T01:06:43;22.00;99.90
40756;DHT22;26461;45.630;9.418;2023-06-10T01:13:05;21.90;99.90
40756;DHT22;26461;45.630;9.418;2023-06-10T01:16:22;21.90;99.90
40756;DHT22;26461;45.630;9.418;2023-06-10T01:19:32;21.90;99.90
40756;DHT22;26461;45.630;9.418;2023-06-10T01:22:39;21.80;99.90
40756;DHT22;26461;45.630;9.418;2023-06-10T01:26:03;21.80;99.90
40756;DHT22;26461;45.630;9.418;2023-06-10T01:29:19;21.80;99.90
40756;DHT22;26461;45.630;9.418;2023-06-10T01:32:37;21.80;99.90
40756;DHT22;26461;45.630;9.418;2023-06-10T01:35:47;21.70;99.90
40756;DHT22;26461;45.630;9.418;2023-06-10T01:38:53;21.70;99.90
40756;DHT22;26461;45.630;9.418;2023-06-10T01:42:05;21.70;99.90
40756;DHT22;26461;45.630;9.418;2023-06-10T01:45:13;21.70;99.90
40756;DHT22;26461;45.630;9.418;2023-06-10T01:48:44;21.70;99.90
40756;DHT22;26461;45.630;9.418;2023-06-10T01:51:50;21.70;99.90
40756;DHT22;26461;45.630;9.418;2023-06-10T01:54:55;21.70;99.90
40756;DHT22;26461;45.630;9.418;2023-06-10T01:58:00;21.70;99.90
40756;DHT22;26461;45.630;9.418;2023-06-10T02:01:06;21.70;99.90
40756;DHT22;26461;45.630;9.418;2023-06-10T02:04:13;21.80;99.90
40756;DHT22;26461;45.630;9.418;2023-06-10T02:07:19;21.80;99.90
40756;DHT22;26461;45.630;9.418;2023-06-10T02:10:26;21.80;99.90
40756;DHT22;26461;45.630;9.418;2023-06-10T02:13:31;21.80;99.90
40756;DHT22;26461;45.630;9.418;2023-06-10T02:16:38;21.80;99.90
40756;DHT22;26461;45.630;9.418;2023-06-10T02:19:44;21.80;99.90
40756;DHT22;26461;45.630;9.418;2023-06-10T02:22:59;21.80;99.90
40756;DHT22;26461;45.630;9.418;2023-06-10T02:26:05;21.80;99.90
40756;DHT22;26461;45.630;9.418;2023-06-10T02:29:11;21.80;99.90
40756;DHT22;26461;45.630;9.418;2023-06-10T02:32:22;21.80;99.90
40756;DHT22;26461;45.630;9.418;2023-06-10T02:35:34;21.80;99.90
40756;DHT22;26461;45.630;9.418;2023-06-10T02:38:40;21.80;99.90
40756;DHT22;26461;45.630;9.418;2023-06-10T02:41:46;21.80;99.90
40756;DHT22;26461;45.630;9.418;2023-06-10T02:44:56;21.80;99.90
40756;DHT22;26461;45.630;9.418;2023-06-10T02:48:14;21.80;99.90
40756;DHT22;26461;45.630;9.418;2023-06-10T02:51:25;21.80;99.90
40756;DHT22;26461;45.630;9.418;2023-06-10T02:54:36;21.80;99.90
40756;DHT22;26461;45.630;9.418;2023-06-10T02:57:47;21.70;99.90
40756;DHT22;26461;45.630;9.418;2023-06-10T03:00:54;21.70;99.90
40756;DHT22;26461;45.630;9.418;2023-06-10T03:04:10;21.60;99.90
40756;DHT22;26461;45.630;9.418;2023-06-10T03:07:23;21.70;99.90
40756;DHT22;26461;45.630;9.418;2023-06-10T03:10:33;21.60;99.90
40756;DHT22;26461;45.630;9.418;2023-06-10T03:13:40;21.50;99.90
40756;DHT22;26461;45.630;9.418;2023-06-10T03:16:49;21.50;99.90
40756;DHT22;26461;45.630;9.418;2023-06-10T03:19:55;21.50;99.90
40756;DHT22;26461;45.630;9.418;2023-06-10T03:23:01;21.40;99.90
40756;DHT22;26461;45.630;9.418;2023-06-10T03:26:07;21.40;99.90
40756;DHT22;26461;45.630;9.418;2023-06-10T03:29:19;21.40;99.90
40756;DHT22;26461;45.630;9.418;2023-06-10T03:32:25;21.40;99.90
40756;DHT22;26461;45.630;9.418;2023-06-10T03:35:37;21.40;99.90
40756;DHT22;26461;45.630;9.418;2023-06-10T03:38:43;21.40;99.90
40756;DHT22;26461;45.630;9.418;2023-06-10T03:41:49;21.40;99.90
40756;DHT22;26461;45.630;9.418;2023-06-10T03:44:55;21.40;99.90
40756;DHT22;26461;45.630;9.418;2023-06-10T03:48:01;21.50;99.90
40756;DHT22;26461;45.630;9.418;2023-06-10T03:51:17;21.50;99.90
40756;DHT22;26461;45.630;9.418;2023-06-10T03:54:23;21.50;99.90
40756;DHT22;26461;45.630;9.418;2023-06-10T03:57:33;21.50;99.90
40756;DHT22;26461;45.630;9.418;2023-06-10T04:00:43;21.50;99.90
40756;DHT22;26461;45.630;9.418;2023-06-10T04:03:50;21.50;99.90
40756;DHT22;26461;45.630;9.418;2023-06-10T04:07:02;21.40;99.90
40756;DHT22;26461;45.630;9.418;2023-06-10T04:10:09;21.40;99.90
40756;DHT22;26461;45.630;9.418;2023-06-10T04:13:14;21.40;99.90
40756;DHT22;26461;45.630;9.418;2023-06-10T04:16:29;21.40;99.90
40756;DHT22;26461;45.630;9.418;2023-06-10T04:19:40;21.40;99.90
40756;DHT22;26461;45.630;9.418;2023-06-10T04:22:46;21.40;99.90
40756;DHT22;26461;45.630;9.418;2023-06-10T04:25:53;21.40;99.90
40756;DHT22;26461;45.630;9.418;2023-06-10T04:28:58;21.30;99.90
40756;DHT22;26461;45.630;9.418;2023-06-10T04:32:04;21.30;99.90
40756;DHT22;26461;45.630;9.418;2023-06-10T04:35:12;21.30;99.90
40756;DHT22;26461;45.630;9.418;2023-06-10T04:38:19;21.30;99.90
40756;DHT22;26461;45.630;9.418;2023-06-10T04:41:30;21.30;99.90
40756;DHT22;26461;45.630;9.418;2023-06-10T04:44:36;21.30;99.90
40756;DHT22;26461;45.630;9.418;2023-06-10T04:47:47;21.30;99.90
40756;DHT22;26461;45.630;9.418;2023-06-10T04:50:58;21.30;99.90
40756;DHT22;26461;45.630;9.418;2023-06-10T04:54:09;21.30;99.90
40756;DHT22;26461;45.630;9.418;2023-06-10T04:57:19;21.30;99.90
40756;DHT22;26461;45.630;9.418;2023-06-10T05:00:26;21.30;99.90
40756;DHT22;26461;45.630;9.418;2023-06-10T05:03:33;21.30;99.90
40756;DHT22;26461;45.630;9.418;2023-06-10T05:06:38;21.30;99.90
40756;DHT22;26461;45.630;9.418;2023-06-10T05:09:43;21.30;99.90
40756;DHT22;26461;45.630;9.418;2023-06-10T05:12:50;21.40;99.90
40756;DHT22;26461;45.630;9.418;2023-06-10T05:16:03;21.40;99.90
40756;DHT22;26461;45.630;9.418;2023-06-10T05:19:08;21.40;99.90
40756;DHT22;26461;45.630;9.418;2023-06-10T05:22:14;21.40;99.90
40756;DHT22;26461;45.630;9.418;2023-06-10T05:25:21;21.40;99.90
40756;DHT22;26461;45.630;9.418;2023-06-10T05:28:33;21.50;99.90
40756;DHT22;26461;45.630;9.418;2023-06-10T05:31:37;21.50;99.90
40756;DHT22;26461;45.630;9.418;2023-06-10T05:34:47;21.50;99.90
40756;DHT22;26461;45.630;9.418;2023-06-10T05:37:58;21.60;99.90
40756;DHT22;26461;45.630;9.418;2023-06-10T05:41:03;21.60;99.90
40756;DHT22;26461;45.630;9.418;2023-06-10T05:44:08;21.70;99.90
40756;DHT22;26461;45.630;9.418;2023-06-10T05:47:13;21.70;99.90
40756;DHT22;26461;45.630;9.418;2023-06-10T05:50:24;21.80;99.90
40756;DHT22;26461;45.630;9.418;2023-06-10T05:53:31;21.80;99.90
40756;DHT22;26461;45.630;9.418;2023-06-10T05:56:42;21.80;99.90
40756;DHT22;26461;45.630;9.418;2023-06-10T05:59:52;21.80;99.90
40756;DHT22;26461;45.630;9.418;2023-06-10T06:03:02;21.80;99.90
40756;DHT22;26461;45.630;9.418;2023-06-10T06:06:13;21.80;99.90
40756;DHT22;26461;45.630;9.418;2023-06-10T06:09:23;21.80;99.90
40756;DHT22;26461;45.630;9.418;2023-06-10T06:12:34;21.80;99.90
40756;DHT22;26461;45.630;9.418;2023-06-10T06:15:44;21.80;99.90
40756;DHT22;26461;45.630;9.418;2023-06-10T06:18:50;21.80;99.90
40756;DHT22;26461;45.630;9.418;2023-06-10T06:21:55;21.80;99.90
40756;DHT22;26461;45.630;9.418;2023-06-10T06:25:05;21.80;99.90
40756;DHT22;26461;45.630;9.418;2023-06-10T06:28:16;21.80;99.90
40756;DHT22;26461;45.630;9.418;2023-06-10T06:31:26;21.90;99.90
40756;DHT22;26461;45.630;9.418;2023-06-10T06:34:32;21.90;99.90
40756;DHT22;26461;45.630;9.418;2023-06-10T06:37:38;21.90;99.90
40756;DHT22;26461;45.630;9.418;2023-06-10T06:41:01;21.90;99.90
40756;DHT22;26461;45.630;9.418;2023-06-10T06:44:08;21.90;99.90
40756;DHT22;26461;45.630;9.418;2023-06-10T06:47:24;22.00;99.90
40756;DHT22;26461;45.630;9.418;2023-06-10T06:50:34;22.00;99.90
40756;DHT22;26461;45.630;9.418;2023-06-10T06:53:40;22.00;99.90
40756;DHT22;26461;45.630;9.418;2023-06-10T06:56:54;22.00;99.90
40756;DHT22;26461;45.630;9.418;2023-06-10T07:00:05;22.10;99.90
40756;DHT22;26461;45.630;9.418;2023-06-10T07:03:15;22.10;99.90
40756;DHT22;26461;45.630;9.418;2023-06-10T07:06:26;22.10;99.90
40756;DHT22;26461;45.630;9.418;2023-06-10T07:09:37;22.20;99.90
40756;DHT22;26461;45.630;9.418;2023-06-10T07:12:48;22.20;99.90
40756;DHT22;26461;45.630;9.418;2023-06-10T07:15:58;22.20;99.90
40756;DHT22;26461;45.630;9.418;2023-06-10T07:19:09;22.20;99.90
40756;DHT22;26461;45.630;9.418;2023-06-10T07:22:19;22.20;99.90
40756;DHT22;26461;45.630;9.418;2023-06-10T07:25:29;22.20;99.90
40756;DHT22;26461;45.630;9.418;2023-06-10T07:28:40;22.20;99.90
40756;DHT22;26461;45.630;9.418;2023-06-10T07:31:46;22.20;99.90
40756;DHT22;26461;45.630;9.418;2023-06-10T07:34:57;22.20;99.90
40756;DHT22;26461;45.630;9.418;2023-06-10T07:38:07;22.20;99.90
40756;DHT22;26461;45.630;9.418;2023-06-10T07:41:17;22.20;99.90
40756;DHT22;26461;45.630;9.418;2023-06-10T07:44:23;22.30;99.90
40756;DHT22;26461;45.630;9.418;2023-06-10T07:47:38;22.30;99.90
40756;DHT22;26461;45.630;9.418;2023-06-10T07:50:48;22.30;99.90
40756;DHT22;26461;45.630;9.418;2023-06-10T07:53:54;22.30;99.90
40756;DHT22;26461;45.630;9.418;2023-06-10T07:57:05;22.30;99.90
40756;DHT22;26461;45.630;9.418;2023-06-10T08:00:17;22.40;99.90
40756;DHT22;26461;45.630;9.418;2023-06-10T08:03:28;22.40;99.90
40756;DHT22;26461;45.630;9.418;2023-06-10T08:06:38;22.50;99.90
40756;DHT22;26461;45.630;9.418;2023-06-10T08:09:44;22.50;99.90
40756;DHT22;26461;45.630;9.418;2023-06-10T08:12:49;22.60;99.90
40756;DHT22;26461;45.630;9.418;2023-06-10T08:16:00;22.60;99.90
40756;DHT22;26461;45.630;9.418;2023-06-10T08:19:11;22.60;99.90
40756;DHT22;26461;45.630;9.418;2023-06-10T08:22:22;22.60;99.90
40756;DHT22;26461;45.630;9.418;2023-06-10T08:25:27;22.60;99.90
40756;DHT22;26461;45.630;9.418;2023-06-10T08:28:38;22.70;99.90
40756;DHT22;26461;45.630;9.418;2023-06-10T08:31:48;22.80;99.90
40756;DHT22;26461;45.630;9.418;2023-06-10T08:34:54;22.80;99.90
40756;DHT22;26461;45.630;9.418;2023-06-10T08:38:04;22.80;99.90
40756;DHT22;26461;45.630;9.418;2023-06-10T08:41:12;22.80;99.90
40756;DHT22;26461;45.630;9.418;2023-06-10T08:44:30;22.90;99.90
40756;DHT22;26461;45.630;9.418;2023-06-10T08:47:45;22.90;99.90
40756;DHT22;26461;45.630;9.418;2023-06-10T08:50:59;22.80;99.90
40756;DHT22;26461;45.630;9.418;2023-06-10T08:54:14;22.90;99.90
40756;DHT22;26461;45.630;9.418;2023-06-10T08:57:26;22.90;99.90
40756;DHT22;26461;45.630;9.418;2023-06-10T09:00:32;22.90;99.90
40756;DHT22;26461;45.630;9.418;2023-06-10T09:03:43;22.90;99.90
40756;DHT22;26461;45.630;9.418;2023-06-10T09:06:54;22.90;99.90
40756;DHT22;26461;45.630;9.418;2023-06-10T09:10:01;22.90;99.90
40756;DHT22;26461;45.630;9.418;2023-06-10T09:13:13;22.90;99.90
40756;DHT22;26461;45.630;9.418;2023-06-10T09:16:26;22.90;99.90
40756;DHT22;26461;45.630;9.418;2023-06-10T09:19:38;22.90;99.90
40756;DHT22;26461;45.630;9.418;2023-06-10T09:22:49;23.00;99.90
40756;DHT22;26461;45.630;9.418;2023-06-10T09:26:29;23.00;99.90
40756;DHT22;26461;45.630;9.418;2023-06-10T09:29:47;23.00;99.90
40756;DHT22;26461;45.630;9.418;2023-06-10T09:33:09;23.10;99.90
40756;DHT22;26461;45.630;9.418;2023-06-10T09:36:24;23.10;99.90
40756;DHT22;26461;45.630;9.418;2023-06-10T09:39:34;23.10;99.90
40756;DHT22;26461;45.630;9.418;2023-06-10T09:42:39;23.10;99.90
40756;DHT22;26461;45.630;9.418;2023-06-10T09:45:50;23.20;99.90
40756;DHT22;26461;45.630;9.418;2023-06-10T09:48:59;23.20;99.90
40756;DHT22;26461;45.630;9.418;2023-06-10T09:52:10;23.20;99.90
40756;DHT22;26461;45.630;9.418;2023-06-10T09:55:21;23.20;99.90
40756;DHT22;26461;45.630;9.418;2023-06-10T09:58:37;23.30;99.90
40756;DHT22;26461;45.630;9.418;2023-06-10T10:01:55;23.30;99.90
40756;DHT22;26461;45.630;9.418;2023-06-10T10:05:05;23.40;99.90
40756;DHT22;26461;45.630;9.418;2023-06-10T10:08:11;23.40;99.90
40756;DHT22;26461;45.630;9.418;2023-06-10T10:11:23;23.50;99.90
40756;DHT22;26461;45.630;9.418;2023-06-10T10:14:35;23.50;99.90
40756;DHT22;26461;45.630;9.418;2023-06-10T10:17:48;23.50;99.90
40756;DHT22;26461;45.630;9.418;2023-06-10T10:21:05;23.50;99.90
40756;DHT22;26461;45.630;9.418;2023-06-10T10:24:20;23.50;99.90
40756;DHT22;26461;45.630;9.418;2023-06-10T10:27:45;23.40;99.90
40756;DHT22;26461;45.630;9.418;2023-06-10T10:31:04;23.50;99.90
40756;DHT22;26461;45.630;9.418;2023-06-10T10:34:15;23.50;99.90
40756;DHT22;26461;45.630;9.418;2023-06-10T10:37:26;23.50;99.90
40756;DHT22;26461;45.630;9.418;2023-06-10T10:40:38;23.50;99.90
40756;DHT22;26461;45.630;9.418;2023-06-10T10:43:49;23.60;99.90
40756;DHT22;26461;45.630;9.418;2023-06-10T10:47:03;23.60;99.90
40756;DHT22;26461;45.630;9.418;2023-06-10T10:50:19;23.60;99.90
40756;DHT22;26461;45.630;9.418;2023-06-10T10:53:33;23.70;99.90
40756;DHT22;26461;45.630;9.418;2023-06-10T11:00:30;23.80;99.90
40756;DHT22;26461;45.630;9.418;2023-06-10T11:03:43;23.90;99.90
40756;DHT22;26461;45.630;9.418;2023-06-10T11:06:54;23.90;99.90
40756;DHT22;26461;45.630;9.418;2023-06-10T11:10:11;23.90;99.90
40756;DHT22;26461;45.630;9.418;2023-06-10T11:13:22;23.90;99.90
40756;DHT22;26461;45.630;9.418;2023-06-10T11:16:28;23.90;99.90
40756;DHT22;26461;45.630;9.418;2023-06-10T11:19:39;24.00;99.90
40756;DHT22;26461;45.630;9.418;2023-06-10T11:22:59;24.00;99.90
40756;DHT22;26461;45.630;9.418;2023-06-10T11:33:20;24.00;99.90
40756;DHT22;26461;45.630;9.418;2023-06-10T11:36:40;24.00;99.90
40756;DHT22;26461;45.630;9.418;2023-06-10T11:40:02;24.00;99.90
40756;DHT22;26461;45.630;9.418;2023-06-10T11:43:22;24.00;99.90
40756;DHT22;26461;45.630;9.418;2023-06-10T11:46:28;24.00;99.90
40756;DHT22;26461;45.630;9.418;2023-06-10T11:49:33;24.00;99.90
40756;DHT22;26461;45.630;9.418;2023-06-10T11:52:41;24.00;99.90
40756;DHT22;26461;45.630;9.418;2023-06-10T11:55:57;24.00;99.90
40756;DHT22;26461;45.630;9.418;2023-06-10T11:59:27;24.00;99.90
40756;DHT22;26461;45.630;9.418;2023-06-10T12:02:46;24.00;99.90
40756;DHT22;26461;45.630;9.418;2023-06-10T12:06:05;24.00;99.90
40756;DHT22;26461;45.630;9.418;2023-06-10T12:09:20;24.00;99.90
40756;DHT22;26461;45.630;9.418;2023-06-10T12:12:25;24.00;99.90
40756;DHT22;26461;45.630;9.418;2023-06-10T12:15:36;24.00;99.90
40756;DHT22;26461;45.630;9.418;2023-06-10T12:18:46;24.00;99.90
40756;DHT22;26461;45.630;9.418;2023-06-10T12:21:52;24.10;99.90
40756;DHT22;26461;45.630;9.418;2023-06-10T12:25:05;24.10;99.90
40756;DHT22;26461;45.630;9.418;2023-06-10T12:28:16;24.00;99.40
40756;DHT22;26461;45.630;9.418;2023-06-10T12:31:22;24.00;99.50
40756;DHT22;26461;45.630;9.418;2023-06-10T12:34:35;24.00;99.60
40756;DHT22;26461;45.630;9.418;2023-06-10T12:37:40;24.00;99.80
40756;DHT22;26461;45.630;9.418;2023-06-10T12:40:46;24.00;99.90
40756;DHT22;26461;45.630;9.418;2023-06-10T12:43:58;24.00;99.90
40756;DHT22;26461;45.630;9.418;2023-06-10T12:47:10;24.10;99.90
40756;DHT22;26461;45.630;9.418;2023-06-10T12:50:22;24.10;99.90
40756;DHT22;26461;45.630;9.418;2023-06-10T12:53:32;24.10;99.80
40756;DHT22;26461;45.630;9.418;2023-06-10T12:56:43;24.20;99.50
40756;DHT22;26461;45.630;9.418;2023-06-10T12:59:53;24.20;99.50
40756;DHT22;26461;45.630;9.418;2023-06-10T13:03:07;24.20;99.00
40756;DHT22;26461;45.630;9.418;2023-06-10T13:06:17;24.20;99.10
40756;DHT22;26461;45.630;9.418;2023-06-10T13:09:25;24.20;99.20
40756;DHT22;26461;45.630;9.418;2023-06-10T13:12:31;24.20;98.90
40756;DHT22;26461;45.630;9.418;2023-06-10T13:15:36;24.20;98.60
40756;DHT22;26461;45.630;9.418;2023-06-10T13:18:42;24.20;98.70
40756;DHT22;26461;45.630;9.418;2023-06-10T13:21:52;24.20;99.20
40756;DHT22;26461;45.630;9.418;2023-06-10T13:24:59;24.20;98.80
40756;DHT22;26461;45.630;9.418;2023-06-10T13:28:37;24.30;98.60
40756;DHT22;26461;45.630;9.418;2023-06-10T13:31:43;24.30;98.90
40756;DHT22;26461;45.630;9.418;2023-06-10T13:34:55;24.30;99.00
40756;DHT22;26461;45.630;9.418;2023-06-10T13:38:02;24.40;98.80
40756;DHT22;26461;45.630;9.418;2023-06-10T13:41:07;24.40;98.80
40756;DHT22;26461;45.630;9.418;2023-06-10T13:44:17;24.40;98.80
40756;DHT22;26461;45.630;9.418;2023-06-10T13:47:30;24.50;99.00
40756;DHT22;26461;45.630;9.418;2023-06-10T13:50:41;24.60;98.70
40756;DHT22;26461;45.630;9.418;2023-06-10T13:53:55;24.60;98.60
40756;DHT22;26461;45.630;9.418;2023-06-10T13:57:05;24.70;98.50
40756;DHT22;26461;45.630;9.418;2023-06-10T14:00:11;24.70;98.40
40756;DHT22;26461;45.630;9.418;2023-06-10T14:03:18;24.80;98.00
40756;DHT22;26461;45.630;9.418;2023-06-10T14:06:24;24.90;97.90
40756;DHT22;26461;45.630;9.418;2023-06-10T14:09:29;25.00;97.90
40756;DHT22;26461;45.630;9.418;2023-06-10T14:12:35;25.10;98.00
40756;DHT22;26461;45.630;9.418;2023-06-10T14:15:41;25.20;97.60
40756;DHT22;26461;45.630;9.418;2023-06-10T14:18:47;25.30;97.40
40756;DHT22;26461;45.630;9.418;2023-06-10T14:21:52;25.30;97.40
40756;DHT22;26461;45.630;9.418;2023-06-10T14:24:59;25.40;97.10
40756;DHT22;26461;45.630;9.418;2023-06-10T14:28:04;25.50;97.20
40756;DHT22;26461;45.630;9.418;2023-06-10T14:31:10;25.60;96.80
40756;DHT22;26461;45.630;9.418;2023-06-10T14:34:15;25.60;96.80
40756;DHT22;26461;45.630;9.418;2023-06-10T14:37:51;25.70;96.70
40756;DHT22;26461;45.630;9.418;2023-06-10T14:41:00;25.80;96.20
40756;DHT22;26461;45.630;9.418;2023-06-10T14:44:06;25.90;96.30
40756;DHT22;26461;45.630;9.418;2023-06-10T14:47:27;26.00;96.10
40756;DHT22;26461;45.630;9.418;2023-06-10T14:50:36;26.10;95.70
40756;DHT22;26461;45.630;9.418;2023-06-10T14:53:42;26.20;95.50
40756;DHT22;26461;45.630;9.418;2023-06-10T14:56:56;26.10;95.50
40756;DHT22;26461;45.630;9.418;2023-06-10T15:00:16;26.20;95.30
40756;DHT22;26461;45.630;9.418;2023-06-10T15:03:28;26.30;95.30
40756;DHT22;26461;45.630;9.418;2023-06-10T15:06:46;26.40;95.00
40756;DHT22;26461;45.630;9.418;2023-06-10T15:10:04;26.40;94.70
40756;DHT22;26461;45.630;9.418;2023-06-10T15:13:15;26.50;94.80
40756;DHT22;26461;45.630;9.418;2023-06-10T15:16:33;26.60;94.40
40756;DHT22;26461;45.630;9.418;2023-06-10T15:20:00;26.70;94.40
40756;DHT22;26461;45.630;9.418;2023-06-10T15:23:14;26.80;94.10
40756;DHT22;26461;45.630;9.418;2023-06-10T15:26:36;26.90;93.90
40756;DHT22;26461;45.630;9.418;2023-06-10T15:29:42;27.00;93.50
40756;DHT22;26461;45.630;9.418;2023-06-10T15:32:55;27.10;93.70
40756;DHT22;26461;45.630;9.418;2023-06-10T15:36:11;27.20;93.80
40756;DHT22;26461;45.630;9.418;2023-06-10T15:39:30;27.40;93.50
40756;DHT22;26461;45.630;9.418;2023-06-10T15:42:41;27.50;92.90
40756;DHT22;26461;45.630;9.418;2023-06-10T15:45:57;27.70;93.10
40756;DHT22;26461;45.630;9.418;2023-06-10T15:49:13;27.80;92.30
40756;DHT22;26461;45.630;9.418;2023-06-10T15:52:27;27.90;92.00
40756;DHT22;26461;45.630;9.418;2023-06-10T15:55:36;28.00;91.70
40756;DHT22;26461;45.630;9.418;2023-06-10T15:58:53;28.10;91.70
40756;DHT22;26461;45.630;9.418;2023-06-10T16:02:05;28.20;91.40
40756;DHT22;26461;45.630;9.418;2023-06-10T16:05:28;28.30;91.50
40756;DHT22;26461;45.630;9.418;2023-06-10T16:08:39;28.40;91.40
40756;DHT22;26461;45.630;9.418;2023-06-10T16:11:45;28.50;90.50
40756;DHT22;26461;45.630;9.418;2023-06-10T16:15:00;28.60;90.30
40756;DHT22;26461;45.630;9.418;2023-06-10T16:18:09;28.70;90.60
40756;DHT22;26461;45.630;9.418;2023-06-10T16:21:20;28.80;90.60
40756;DHT22;26461;45.630;9.418;2023-06-10T16:24:25;28.90;90.20
40756;DHT22;26461;45.630;9.418;2023-06-10T16:27:31;29.00;89.80
40756;DHT22;26461;45.630;9.418;2023-06-10T16:30:44;29.10;88.90
40756;DHT22;26461;45.630;9.418;2023-06-10T16:33:53;29.20;88.00
40756;DHT22;26461;45.630;9.418;2023-06-10T16:37:02;29.30;87.50
40756;DHT22;26461;45.630;9.418;2023-06-10T16:40:15;29.40;86.40
40756;DHT22;26461;45.630;9.418;2023-06-10T16:43:27;29.50;85.90
40756;DHT22;26461;45.630;9.418;2023-06-10T16:46:37;29.50;86.00
40756;DHT22;26461;45.630;9.418;2023-06-10T16:49:46;29.40;85.50
40756;DHT22;26461;45.630;9.418;2023-06-10T16:52:52;29.30;85.60
40756;DHT22;26461;45.630;9.418;2023-06-10T16:55:58;29.20;85.00
40756;DHT22;26461;45.630;9.418;2023-06-10T16:59:12;29.00;84.30
40756;DHT22;26461;45.630;9.418;2023-06-10T17:02:26;28.80;83.70
40756;DHT22;26461;45.630;9.418;2023-06-10T17:05:41;28.70;83.90
40756;DHT22;26461;45.630;9.418;2023-06-10T17:08:48;28.50;84.80
40756;DHT22;26461;45.630;9.418;2023-06-10T17:11:54;28.30;85.30
40756;DHT22;26461;45.630;9.418;2023-06-10T17:15:00;28.20;85.10
40756;DHT22;26461;45.630;9.418;2023-06-10T17:18:10;28.10;85.10
40756;DHT22;26461;45.630;9.418;2023-06-10T17:21:16;28.00;85.50
40756;DHT22;26461;45.630;9.418;2023-06-10T17:24:30;27.90;85.40
40756;DHT22;26461;45.630;9.418;2023-06-10T17:27:41;27.90;85.70
40756;DHT22;26461;45.630;9.418;2023-06-10T17:30:46;27.80;87.00
40756;DHT22;26461;45.630;9.418;2023-06-10T17:34:01;27.70;86.60
40756;DHT22;26461;45.630;9.418;2023-06-10T17:37:16;27.70;87.70
40756;DHT22;26461;45.630;9.418;2023-06-10T17:40:27;27.60;87.90
40756;DHT22;26461;45.630;9.418;2023-06-10T17:43:33;27.60;87.50
40756;DHT22;26461;45.630;9.418;2023-06-10T17:46:38;27.60;88.00
40756;DHT22;26461;45.630;9.418;2023-06-10T17:49:44;27.50;88.70
40756;DHT22;26461;45.630;9.418;2023-06-10T17:52:52;27.50;88.80
40756;DHT22;26461;45.630;9.418;2023-06-10T17:55:58;27.40;89.10
40756;DHT22;26461;45.630;9.418;2023-06-10T17:59:04;27.40;89.20
40756;DHT22;26461;45.630;9.418;2023-06-10T18:02:10;27.30;89.30
40756;DHT22;26461;45.630;9.418;2023-06-10T18:05:16;27.30;89.90
40756;DHT22;26461;45.630;9.418;2023-06-10T18:08:22;27.20;90.70
40756;DHT22;26461;45.630;9.418;2023-06-10T18:11:33;27.20;91.20
40756;DHT22;26461;45.630;9.418;2023-06-10T18:14:47;27.10;92.10
40756;DHT22;26461;45.630;9.418;2023-06-10T18:17:52;27.10;92.40
40756;DHT22;26461;45.630;9.418;2023-06-10T18:21:00;27.00;92.50
40756;DHT22;26461;45.630;9.418;2023-06-10T18:24:07;27.00;92.70
40756;DHT22;26461;45.630;9.418;2023-06-10T18:27:15;26.90;92.80
40756;DHT22;26461;45.630;9.418;2023-06-10T18:30:23;26.80;93.00
40756;DHT22;26461;45.630;9.418;2023-06-10T18:33:32;26.80;93.20
40756;DHT22;26461;45.630;9.418;2023-06-10T18:36:46;26.70;93.40
40756;DHT22;26461;45.630;9.418;2023-06-10T18:39:52;26.60;93.40
40756;DHT22;26461;45.630;9.418;2023-06-10T18:42:58;26.60;93.50
40756;DHT22;26461;45.630;9.418;2023-06-10T18:46:05;26.50;93.60
40756;DHT22;26461;45.630;9.418;2023-06-10T18:49:16;26.40;93.70
40756;DHT22;26461;45.630;9.418;2023-06-10T18:52:27;26.40;93.70
40756;DHT22;26461;45.630;9.418;2023-06-10T18:55:37;26.40;93.70
40756;DHT22;26461;45.630;9.418;2023-06-10T18:58:43;26.30;93.70
40756;DHT22;26461;45.630;9.418;2023-06-10T19:01:54;26.20;93.80
40756;DHT22;26461;45.630;9.418;2023-06-10T19:04:59;26.20;93.80
40756;DHT22;26461;45.630;9.418;2023-06-10T19:08:10;26.20;93.90
40756;DHT22;26461;45.630;9.418;2023-06-10T19:11:22;26.10;93.90
40756;DHT22;26461;45.630;9.418;2023-06-10T19:14:27;26.00;93.90
40756;DHT22;26461;45.630;9.418;2023-06-10T19:17:34;26.00;93.90
40756;DHT22;26461;45.630;9.418;2023-06-10T19:20:43;25.90;94.00
40756;DHT22;26461;45.630;9.418;2023-06-10T19:23:52;25.90;94.00
40756;DHT22;26461;45.630;9.418;2023-06-10T19:26:58;25.80;94.10
40756;DHT22;26461;45.630;9.418;2023-06-10T19:30:11;25.80;94.20
40756;DHT22;26461;45.630;9.418;2023-06-10T19:33:26;25.80;94.30
40756;DHT22;26461;45.630;9.418;2023-06-10T19:36:32;25.70;94.30
40756;DHT22;26461;45.630;9.418;2023-06-10T19:39:45;25.70;94.50
40756;DHT22;26461;45.630;9.418;2023-06-10T19:42:52;25.60;94.70
40756;DHT22;26461;45.630;9.418;2023-06-10T19:46:01;25.60;95.00
40756;DHT22;26461;45.630;9.418;2023-06-10T19:49:15;25.50;95.20
40756;DHT22;26461;45.630;9.418;2023-06-10T19:52:27;25.40;95.50
40756;DHT22;26461;45.630;9.418;2023-06-10T19:55:37;25.40;95.70
40756;DHT22;26461;45.630;9.418;2023-06-10T19:58:43;25.30;95.70
40756;DHT22;26461;45.630;9.418;2023-06-10T20:01:53;25.30;95.60
40756;DHT22;26461;45.630;9.418;2023-06-10T20:04:59;25.30;95.50
40756;DHT22;26461;45.630;9.418;2023-06-10T20:08:05;25.20;95.40
40756;DHT22;26461;45.630;9.418;2023-06-10T20:11:11;25.20;95.50
40756;DHT22;26461;45.630;9.418;2023-06-10T20:14:17;25.10;95.50